Pagrindinis puslapis
METAR-TAF:

METAR-TAF

Oro uostai :

Pėčas, Vengrija

platuma: 46-06N, ilguma: 018-14E, Aukštis: 201 m

Dabartinis oras

Ataskaita buvo paskelbta 2 valandos ir 44 minutes, ne 16:45 UTC
Vėjas 7 kt iš Šiaurės/Šiaurės Vakarų
Temperatūra 15°C
Drėgmė 39%
Slėgis 1024 hPa
Matomumas 10 km arba daugiau
nėra debesų žemiau 1500 m ir nėra kamuolinių lietaus debesų

METAR: LHPP 191645Z 34007KT CAVOK 15/01 Q1024

Laikas: 21:29 (19:29 UTC)

Prognozė

Ataskaita buvo paskelbta 5 valandos ir 14 minutes, ne 14:15 UTC
Prognozė galioja nuo 19 metu 15 UTC su 19 metu 24 UTC
Vėjas 8 kt iš Šiaurės/Šiaurės Rytų
Matomumas 10 km arba daugiau
nėra debesų žemiau 1500 m ir nėra kamuolinių lietaus debesų

TAF: LHPP 191415Z 1915/1924 02008KT CAVOK

Orai ataskaitas ir orų prognozės (METAR, TAF).

turimą stotys yra geltonos ir raudonos taškus žemėlapyje.

Perkelti pele per norėdami pamatyti stoties vardą.

Tada spustelėkite, norėdami matyti oro stebėjimo ir prognozės.

Norėdami pakeisti žemėlapį: spustelėkite ant žalios mygtukų su juodo kryžiaus žemyn,; žalią mygtuką su brūkšneliu, jei norite nutolinti; arba žalių rodyklių gretimoms žemėlapius.


METAR-TAF: